sensor_id;sensor_type;location;lat;lon;timestamp;P1;durP1;ratioP1;P2;durP2;ratioP2
32214;SDS011;18708;53.124;23.190;2023-03-23T00:01:12;29.73;;;18.02;;
32214;SDS011;18708;53.124;23.190;2023-03-23T00:03:39;28.98;;;17.45;;
32214;SDS011;18708;53.124;23.190;2023-03-23T00:06:06;29.60;;;17.58;;
32214;SDS011;18708;53.124;23.190;2023-03-23T00:08:36;29.60;;;17.98;;
32214;SDS011;18708;53.124;23.190;2023-03-23T00:11:09;27.92;;;17.98;;
32214;SDS011;18708;53.124;23.190;2023-03-23T00:13:43;29.73;;;17.95;;
32214;SDS011;18708;53.124;23.190;2023-03-23T00:16:11;30.65;;;18.15;;
32214;SDS011;18708;53.124;23.190;2023-03-23T00:18:44;29.83;;;17.25;;
32214;SDS011;18708;53.124;23.190;2023-03-23T00:21:10;28.80;;;17.48;;
32214;SDS011;18708;53.124;23.190;2023-03-23T00:23:38;28.75;;;18.30;;
32214;SDS011;18708;53.124;23.190;2023-03-23T00:26:04;29.35;;;18.70;;
32214;SDS011;18708;53.124;23.190;2023-03-23T00:28:31;29.27;;;17.55;;
32214;SDS011;18708;53.124;23.190;2023-03-23T00:31:01;27.27;;;17.55;;
32214;SDS011;18708;53.124;23.190;2023-03-23T00:33:29;28.83;;;18.10;;
32214;SDS011;18708;53.124;23.190;2023-03-23T00:35:58;28.05;;;16.95;;
32214;SDS011;18708;53.124;23.190;2023-03-23T00:38:24;31.25;;;17.92;;
32214;SDS011;18708;53.124;23.190;2023-03-23T00:40:50;26.75;;;17.27;;
32214;SDS011;18708;53.124;23.190;2023-03-23T00:43:17;30.77;;;17.20;;
32214;SDS011;18708;53.124;23.190;2023-03-23T00:45:44;26.20;;;16.50;;
32214;SDS011;18708;53.124;23.190;2023-03-23T00:48:14;29.10;;;17.23;;
32214;SDS011;18708;53.124;23.190;2023-03-23T00:50:40;29.45;;;18.05;;
32214;SDS011;18708;53.124;23.190;2023-03-23T00:53:06;26.77;;;16.65;;
32214;SDS011;18708;53.124;23.190;2023-03-23T00:55:32;27.92;;;18.08;;
32214;SDS011;18708;53.124;23.190;2023-03-23T00:57:58;26.10;;;17.23;;
32214;SDS011;18708;53.124;23.190;2023-03-23T01:00:25;28.83;;;17.90;;
32214;SDS011;18708;53.124;23.190;2023-03-23T01:02:52;28.42;;;17.48;;
32214;SDS011;18708;53.124;23.190;2023-03-23T01:05:18;27.05;;;17.40;;
32214;SDS011;18708;53.124;23.190;2023-03-23T01:07:45;30.65;;;18.23;;
32214;SDS011;18708;53.124;23.190;2023-03-23T01:10:11;32.28;;;18.55;;
32214;SDS011;18708;53.124;23.190;2023-03-23T01:12:41;27.65;;;17.67;;
32214;SDS011;18708;53.124;23.190;2023-03-23T01:15:08;31.35;;;18.55;;
32214;SDS011;18708;53.124;23.190;2023-03-23T01:17:34;27.10;;;16.90;;
32214;SDS011;18708;53.124;23.190;2023-03-23T01:20:00;32.50;;;18.83;;
32214;SDS011;18708;53.124;23.190;2023-03-23T01:22:25;24.42;;;16.85;;
32214;SDS011;18708;53.124;23.190;2023-03-23T01:24:51;30.02;;;18.52;;
32214;SDS011;18708;53.124;23.190;2023-03-23T01:27:17;31.10;;;19.38;;
32214;SDS011;18708;53.124;23.190;2023-03-23T01:29:42;30.95;;;19.20;;
32214;SDS011;18708;53.124;23.190;2023-03-23T01:32:08;29.15;;;18.77;;
32214;SDS011;18708;53.124;23.190;2023-03-23T01:34:33;24.30;;;15.90;;
32214;SDS011;18708;53.124;23.190;2023-03-23T01:37:00;30.17;;;17.83;;
32214;SDS011;18708;53.124;23.190;2023-03-23T01:39:25;27.85;;;18.20;;
32214;SDS011;18708;53.124;23.190;2023-03-23T01:41:51;26.55;;;17.25;;
32214;SDS011;18708;53.124;23.190;2023-03-23T01:46:43;30.10;;;18.48;;
32214;SDS011;18708;53.124;23.190;2023-03-23T01:49:13;32.70;;;19.63;;
32214;SDS011;18708;53.124;23.190;2023-03-23T01:51:46;29.75;;;17.95;;
32214;SDS011;18708;53.124;23.190;2023-03-23T01:54:18;30.10;;;19.30;;
32214;SDS011;18708;53.124;23.190;2023-03-23T01:56:47;29.35;;;17.33;;
32214;SDS011;18708;53.124;23.190;2023-03-23T01:59:34;26.83;;;16.38;;
32214;SDS011;18708;53.124;23.190;2023-03-23T02:02:01;31.50;;;20.55;;
32214;SDS011;18708;53.124;23.190;2023-03-23T02:04:27;29.48;;;18.95;;
32214;SDS011;18708;53.124;23.190;2023-03-23T02:06:54;30.98;;;19.60;;
32214;SDS011;18708;53.124;23.190;2023-03-23T02:09:22;33.85;;;21.55;;
32214;SDS011;18708;53.124;23.190;2023-03-23T02:11:51;26.90;;;16.83;;
32214;SDS011;18708;53.124;23.190;2023-03-23T02:14:19;31.20;;;18.13;;
32214;SDS011;18708;53.124;23.190;2023-03-23T02:34:32;24.25;;;14.88;;
32214;SDS011;18708;53.124;23.190;2023-03-23T02:37:39;32.40;;;20.25;;
32214;SDS011;18708;53.124;23.190;2023-03-23T02:40:24;33.90;;;19.98;;
32214;SDS011;18708;53.124;23.190;2023-03-23T02:42:55;30.55;;;19.17;;
32214;SDS011;18708;53.124;23.190;2023-03-23T02:45:24;31.35;;;19.42;;
32214;SDS011;18708;53.124;23.190;2023-03-23T02:47:53;31.52;;;20.65;;
32214;SDS011;18708;53.124;23.190;2023-03-23T02:50:21;28.08;;;17.55;;
32214;SDS011;18708;53.124;23.190;2023-03-23T02:52:49;36.35;;;21.55;;
32214;SDS011;18708;53.124;23.190;2023-03-23T02:55:17;30.08;;;19.38;;
32214;SDS011;18708;53.124;23.190;2023-03-23T02:57:46;31.02;;;20.00;;
32214;SDS011;18708;53.124;23.190;2023-03-23T03:00:13;34.13;;;20.20;;
32214;SDS011;18708;53.124;23.190;2023-03-23T03:02:42;36.88;;;22.80;;
32214;SDS011;18708;53.124;23.190;2023-03-23T03:10:58;32.63;;;19.50;;
32214;SDS011;18708;53.124;23.190;2023-03-23T03:16:32;37.90;;;22.25;;
32214;SDS011;18708;53.124;23.190;2023-03-23T03:19:05;36.72;;;22.85;;
32214;SDS011;18708;53.124;23.190;2023-03-23T03:21:36;34.63;;;21.27;;
32214;SDS011;18708;53.124;23.190;2023-03-23T03:24:06;39.25;;;22.73;;
32214;SDS011;18708;53.124;23.190;2023-03-23T03:26:36;36.67;;;21.77;;
32214;SDS011;18708;53.124;23.190;2023-03-23T03:29:05;35.20;;;21.30;;
32214;SDS011;18708;53.124;23.190;2023-03-23T03:31:34;33.95;;;20.92;;
32214;SDS011;18708;53.124;23.190;2023-03-23T03:34:03;36.58;;;21.25;;
32214;SDS011;18708;53.124;23.190;2023-03-23T03:36:32;36.70;;;22.02;;
32214;SDS011;18708;53.124;23.190;2023-03-23T03:39:05;38.63;;;22.25;;
32214;SDS011;18708;53.124;23.190;2023-03-23T03:41:34;33.60;;;20.17;;
32214;SDS011;18708;53.124;23.190;2023-03-23T03:44:00;33.83;;;21.98;;
32214;SDS011;18708;53.124;23.190;2023-03-23T03:46:27;36.08;;;22.70;;
32214;SDS011;18708;53.124;23.190;2023-03-23T03:48:55;38.80;;;23.35;;
32214;SDS011;18708;53.124;23.190;2023-03-23T03:51:24;36.42;;;23.30;;
32214;SDS011;18708;53.124;23.190;2023-03-23T03:53:51;36.30;;;21.13;;
32214;SDS011;18708;53.124;23.190;2023-03-23T03:56:16;38.63;;;23.48;;
32214;SDS011;18708;53.124;23.190;2023-03-23T03:58:42;41.30;;;23.48;;
32214;SDS011;18708;53.124;23.190;2023-03-23T04:01:09;38.53;;;23.35;;
32214;SDS011;18708;53.124;23.190;2023-03-23T04:03:35;38.45;;;22.60;;
32214;SDS011;18708;53.124;23.190;2023-03-23T04:06:02;35.08;;;21.38;;
32214;SDS011;18708;53.124;23.190;2023-03-23T04:08:28;41.15;;;23.98;;
32214;SDS011;18708;53.124;23.190;2023-03-23T04:10:54;42.92;;;23.48;;
32214;SDS011;18708;53.124;23.190;2023-03-23T04:13:21;38.75;;;24.15;;
32214;SDS011;18708;53.124;23.190;2023-03-23T04:15:47;37.65;;;24.08;;
32214;SDS011;18708;53.124;23.190;2023-03-23T04:18:14;40.72;;;24.00;;
32214;SDS011;18708;53.124;23.190;2023-03-23T04:20:43;45.63;;;24.92;;
32214;SDS011;18708;53.124;23.190;2023-03-23T04:23:12;41.47;;;24.48;;
32214;SDS011;18708;53.124;23.190;2023-03-23T04:25:38;39.72;;;23.05;;
32214;SDS011;18708;53.124;23.190;2023-03-23T04:28:06;59.20;;;31.08;;
32214;SDS011;18708;53.124;23.190;2023-03-23T04:30:35;52.25;;;26.20;;
32214;SDS011;18708;53.124;23.190;2023-03-23T04:33:01;42.10;;;24.85;;
32214;SDS011;18708;53.124;23.190;2023-03-23T04:35:27;45.60;;;25.30;;
32214;SDS011;18708;53.124;23.190;2023-03-23T04:37:54;41.88;;;25.90;;
32214;SDS011;18708;53.124;23.190;2023-03-23T04:40:20;41.47;;;24.80;;
32214;SDS011;18708;53.124;23.190;2023-03-23T04:42:47;42.38;;;25.95;;
32214;SDS011;18708;53.124;23.190;2023-03-23T04:45:14;44.08;;;24.52;;
32214;SDS011;18708;53.124;23.190;2023-03-23T04:47:46;41.58;;;23.70;;
32214;SDS011;18708;53.124;23.190;2023-03-23T04:50:19;43.10;;;24.55;;
32214;SDS011;18708;53.124;23.190;2023-03-23T04:52:46;38.15;;;24.45;;
32214;SDS011;18708;53.124;23.190;2023-03-23T04:55:13;41.17;;;23.38;;
32214;SDS011;18708;53.124;23.190;2023-03-23T04:57:39;37.72;;;24.30;;
32214;SDS011;18708;53.124;23.190;2023-03-23T05:00:05;39.67;;;24.38;;
32214;SDS011;18708;53.124;23.190;2023-03-23T05:02:38;36.58;;;22.98;;
32214;SDS011;18708;53.124;23.190;2023-03-23T05:05:10;36.35;;;23.05;;
32214;SDS011;18708;53.124;23.190;2023-03-23T05:07:40;42.50;;;23.67;;
32214;SDS011;18708;53.124;23.190;2023-03-23T05:10:07;39.00;;;24.33;;
32214;SDS011;18708;53.124;23.190;2023-03-23T05:12:35;38.47;;;23.63;;
32214;SDS011;18708;53.124;23.190;2023-03-23T05:15:01;42.17;;;24.58;;
32214;SDS011;18708;53.124;23.190;2023-03-23T05:17:27;37.25;;;24.40;;
32214;SDS011;18708;53.124;23.190;2023-03-23T05:19:55;40.05;;;24.02;;
32214;SDS011;18708;53.124;23.190;2023-03-23T05:22:21;39.20;;;25.25;;
32214;SDS011;18708;53.124;23.190;2023-03-23T05:24:48;36.63;;;22.40;;
32214;SDS011;18708;53.124;23.190;2023-03-23T05:27:16;38.63;;;24.25;;
32214;SDS011;18708;53.124;23.190;2023-03-23T05:29:44;37.95;;;23.95;;
32214;SDS011;18708;53.124;23.190;2023-03-23T05:32:13;40.25;;;24.13;;
32214;SDS011;18708;53.124;23.190;2023-03-23T05:34:41;39.28;;;22.77;;
32214;SDS011;18708;53.124;23.190;2023-03-23T05:37:08;35.30;;;23.60;;
32214;SDS011;18708;53.124;23.190;2023-03-23T05:39:34;35.90;;;23.15;;
32214;SDS011;18708;53.124;23.190;2023-03-23T05:42:01;38.33;;;23.52;;
32214;SDS011;18708;53.124;23.190;2023-03-23T05:44:28;36.22;;;22.38;;
32214;SDS011;18708;53.124;23.190;2023-03-23T05:46:54;38.65;;;23.33;;
32214;SDS011;18708;53.124;23.190;2023-03-23T05:49:20;35.95;;;23.23;;
32214;SDS011;18708;53.124;23.190;2023-03-23T05:51:47;36.50;;;22.33;;
32214;SDS011;18708;53.124;23.190;2023-03-23T05:54:14;38.08;;;22.13;;
32214;SDS011;18708;53.124;23.190;2023-03-23T05:56:40;36.40;;;21.55;;
32214;SDS011;18708;53.124;23.190;2023-03-23T05:59:06;39.50;;;22.13;;
32214;SDS011;18708;53.124;23.190;2023-03-23T06:01:36;35.97;;;22.40;;
32214;SDS011;18708;53.124;23.190;2023-03-23T06:04:02;34.75;;;21.65;;
32214;SDS011;18708;53.124;23.190;2023-03-23T06:06:30;36.10;;;21.98;;
32214;SDS011;18708;53.124;23.190;2023-03-23T06:08:57;36.45;;;22.52;;
32214;SDS011;18708;53.124;23.190;2023-03-23T06:11:23;36.05;;;22.08;;
32214;SDS011;18708;53.124;23.190;2023-03-23T06:13:50;37.70;;;21.80;;
32214;SDS011;18708;53.124;23.190;2023-03-23T06:16:16;37.75;;;22.88;;
32214;SDS011;18708;53.124;23.190;2023-03-23T06:18:42;36.67;;;23.88;;
32214;SDS011;18708;53.124;23.190;2023-03-23T06:21:11;34.75;;;22.45;;
32214;SDS011;18708;53.124;23.190;2023-03-23T06:23:37;38.90;;;22.30;;
32214;SDS011;18708;53.124;23.190;2023-03-23T06:26:05;38.13;;;20.75;;
32214;SDS011;18708;53.124;23.190;2023-03-23T06:28:32;34.72;;;21.42;;
32214;SDS011;18708;53.124;23.190;2023-03-23T06:31:02;34.00;;;22.27;;
32214;SDS011;18708;53.124;23.190;2023-03-23T06:33:31;33.60;;;21.08;;
32214;SDS011;18708;53.124;23.190;2023-03-23T06:35:58;32.78;;;20.88;;
32214;SDS011;18708;53.124;23.190;2023-03-23T06:38:24;36.45;;;21.58;;
32214;SDS011;18708;53.124;23.190;2023-03-23T06:40:54;33.67;;;21.08;;
32214;SDS011;18708;53.124;23.190;2023-03-23T06:43:20;35.80;;;21.20;;
32214;SDS011;18708;53.124;23.190;2023-03-23T06:45:46;35.15;;;22.95;;
32214;SDS011;18708;53.124;23.190;2023-03-23T06:48:12;34.25;;;21.35;;
32214;SDS011;18708;53.124;23.190;2023-03-23T06:50:38;38.17;;;21.70;;
32214;SDS011;18708;53.124;23.190;2023-03-23T06:53:08;37.53;;;22.55;;
32214;SDS011;18708;53.124;23.190;2023-03-23T06:55:34;35.22;;;22.23;;
32214;SDS011;18708;53.124;23.190;2023-03-23T06:58:00;37.35;;;21.67;;
32214;SDS011;18708;53.124;23.190;2023-03-23T07:00:26;33.53;;;21.83;;
32214;SDS011;18708;53.124;23.190;2023-03-23T07:02:52;34.10;;;22.10;;
32214;SDS011;18708;53.124;23.190;2023-03-23T07:05:18;35.97;;;22.90;;
32214;SDS011;18708;53.124;23.190;2023-03-23T07:07:44;38.60;;;22.05;;
32214;SDS011;18708;53.124;23.190;2023-03-23T07:10:10;34.95;;;21.90;;
32214;SDS011;18708;53.124;23.190;2023-03-23T07:12:36;34.40;;;21.77;;
32214;SDS011;18708;53.124;23.190;2023-03-23T07:15:05;34.15;;;22.05;;
32214;SDS011;18708;53.124;23.190;2023-03-23T07:17:34;34.95;;;21.73;;
32214;SDS011;18708;53.124;23.190;2023-03-23T07:20:00;33.70;;;21.80;;
32214;SDS011;18708;53.124;23.190;2023-03-23T07:22:25;32.55;;;20.75;;
32214;SDS011;18708;53.124;23.190;2023-03-23T07:24:51;32.22;;;21.98;;
32214;SDS011;18708;53.124;23.190;2023-03-23T07:27:17;31.85;;;21.50;;
32214;SDS011;18708;53.124;23.190;2023-03-23T07:29:42;34.42;;;21.38;;
32214;SDS011;18708;53.124;23.190;2023-03-23T07:32:10;33.22;;;21.90;;
32214;SDS011;18708;53.124;23.190;2023-03-23T07:34:37;37.00;;;22.38;;
32214;SDS011;18708;53.124;23.190;2023-03-23T07:37:03;33.63;;;22.02;;
32214;SDS011;18708;53.124;23.190;2023-03-23T07:39:30;35.60;;;23.00;;
32214;SDS011;18708;53.124;23.190;2023-03-23T07:41:56;40.67;;;25.10;;
32214;SDS011;18708;53.124;23.190;2023-03-23T07:44:22;36.25;;;23.20;;
32214;SDS011;18708;53.124;23.190;2023-03-23T07:46:47;34.90;;;22.15;;
32214;SDS011;18708;53.124;23.190;2023-03-23T07:49:13;33.72;;;22.10;;
32214;SDS011;18708;53.124;23.190;2023-03-23T07:51:40;36.92;;;25.80;;
32214;SDS011;18708;53.124;23.190;2023-03-23T07:54:06;38.67;;;26.95;;
32214;SDS011;18708;53.124;23.190;2023-03-23T07:56:34;32.80;;;22.55;;
32214;SDS011;18708;53.124;23.190;2023-03-23T07:59:01;31.88;;;20.20;;
32214;SDS011;18708;53.124;23.190;2023-03-23T08:01:29;29.13;;;19.98;;
32214;SDS011;18708;53.124;23.190;2023-03-23T08:03:55;30.63;;;21.10;;
32214;SDS011;18708;53.124;23.190;2023-03-23T08:06:23;30.23;;;20.30;;
32214;SDS011;18708;53.124;23.190;2023-03-23T08:08:49;30.17;;;19.88;;
32214;SDS011;18708;53.124;23.190;2023-03-23T08:11:15;26.92;;;19.90;;
32214;SDS011;18708;53.124;23.190;2023-03-23T08:13:41;31.52;;;19.35;;
32214;SDS011;18708;53.124;23.190;2023-03-23T08:16:08;26.45;;;17.52;;
32214;SDS011;18708;53.124;23.190;2023-03-23T08:18:35;29.33;;;18.13;;
32214;SDS011;18708;53.124;23.190;2023-03-23T08:21:02;25.75;;;17.30;;
32214;SDS011;18708;53.124;23.190;2023-03-23T08:23:33;25.02;;;16.38;;
32214;SDS011;18708;53.124;23.190;2023-03-23T08:26:01;23.33;;;16.00;;
32214;SDS011;18708;53.124;23.190;2023-03-23T08:28:32;24.00;;;15.75;;
32214;SDS011;18708;53.124;23.190;2023-03-23T08:31:07;29.02;;;15.70;;
32214;SDS011;18708;53.124;23.190;2023-03-23T08:33:35;21.42;;;15.02;;
32214;SDS011;18708;53.124;23.190;2023-03-23T08:36:01;24.17;;;15.90;;
32214;SDS011;18708;53.124;23.190;2023-03-23T08:38:30;24.38;;;14.85;;
32214;SDS011;18708;53.124;23.190;2023-03-23T08:40:59;25.38;;;15.27;;
32214;SDS011;18708;53.124;23.190;2023-03-23T08:43:27;21.95;;;15.40;;
32214;SDS011;18708;53.124;23.190;2023-03-23T08:45:53;19.70;;;14.20;;
32214;SDS011;18708;53.124;23.190;2023-03-23T08:48:20;23.30;;;13.70;;
32214;SDS011;18708;53.124;23.190;2023-03-23T08:50:46;22.70;;;13.85;;
32214;SDS011;18708;53.124;23.190;2023-03-23T08:53:12;22.08;;;14.32;;
32214;SDS011;18708;53.124;23.190;2023-03-23T08:55:37;21.70;;;13.40;;
32214;SDS011;18708;53.124;23.190;2023-03-23T08:58:04;21.08;;;12.65;;
32214;SDS011;18708;53.124;23.190;2023-03-23T09:00:30;17.08;;;12.77;;
32214;SDS011;18708;53.124;23.190;2023-03-23T09:02:57;21.90;;;13.45;;
32214;SDS011;18708;53.124;23.190;2023-03-23T09:05:27;17.38;;;12.32;;
32214;SDS011;18708;53.124;23.190;2023-03-23T09:07:54;18.08;;;12.07;;
32214;SDS011;18708;53.124;23.190;2023-03-23T09:10:24;17.75;;;11.02;;
32214;SDS011;18708;53.124;23.190;2023-03-23T09:12:55;15.93;;;11.50;;
32214;SDS011;18708;53.124;23.190;2023-03-23T09:15:23;15.82;;;10.63;;
32214;SDS011;18708;53.124;23.190;2023-03-23T09:17:50;15.90;;;11.52;;
32214;SDS011;18708;53.124;23.190;2023-03-23T09:20:18;14.98;;;10.60;;
32214;SDS011;18708;53.124;23.190;2023-03-23T09:22:47;15.68;;;10.93;;
32214;SDS011;18708;53.124;23.190;2023-03-23T09:25:16;16.48;;;10.32;;
32214;SDS011;18708;53.124;23.190;2023-03-23T09:27:46;15.73;;;10.10;;
32214;SDS011;18708;53.124;23.190;2023-03-23T09:30:17;13.50;;;10.00;;
32214;SDS011;18708;53.124;23.190;2023-03-23T09:32:44;14.15;;;10.50;;
32214;SDS011;18708;53.124;23.190;2023-03-23T09:35:10;14.68;;;11.05;;
32214;SDS011;18708;53.124;23.190;2023-03-23T09:37:38;14.25;;;9.98;;
32214;SDS011;18708;53.124;23.190;2023-03-23T09:40:05;13.25;;;10.00;;
32214;SDS011;18708;53.124;23.190;2023-03-23T09:42:44;12.85;;;9.65;;
32214;SDS011;18708;53.124;23.190;2023-03-23T09:45:39;19.23;;;9.98;;
32214;SDS011;18708;53.124;23.190;2023-03-23T09:57:04;16.05;;;10.05;;
32214;SDS011;18708;53.124;23.190;2023-03-23T09:59:49;12.95;;;8.65;;
32214;SDS011;18708;53.124;23.190;2023-03-23T10:02:21;10.95;;;8.35;;
32214;SDS011;18708;53.124;23.190;2023-03-23T10:04:54;15.35;;;7.93;;
32214;SDS011;18708;53.124;23.190;2023-03-23T10:07:24;12.38;;;7.93;;
32214;SDS011;18708;53.124;23.190;2023-03-23T10:09:54;12.50;;;8.55;;
32214;SDS011;18708;53.124;23.190;2023-03-23T10:15:18;13.38;;;9.02;;
32214;SDS011;18708;53.124;23.190;2023-03-23T10:18:02;10.38;;;7.57;;
32214;SDS011;18708;53.124;23.190;2023-03-23T10:20:37;12.75;;;7.75;;
32214;SDS011;18708;53.124;23.190;2023-03-23T10:28:47;8.95;;;6.00;;
32214;SDS011;18708;53.124;23.190;2023-03-23T10:31:21;7.65;;;5.55;;
32214;SDS011;18708;53.124;23.190;2023-03-23T10:33:50;10.25;;;5.75;;
32214;SDS011;18708;53.124;23.190;2023-03-23T10:36:21;9.52;;;5.90;;
32214;SDS011;18708;53.124;23.190;2023-03-23T10:39:03;7.97;;;5.90;;
32214;SDS011;18708;53.124;23.190;2023-03-23T10:41:31;9.13;;;5.20;;
32214;SDS011;18708;53.124;23.190;2023-03-23T10:43:56;6.75;;;4.65;;
32214;SDS011;18708;53.124;23.190;2023-03-23T10:46:29;9.63;;;4.75;;
32214;SDS011;18708;53.124;23.190;2023-03-23T10:48:57;14.07;;;5.38;;
32214;SDS011;18708;53.124;23.190;2023-03-23T10:51:27;6.72;;;4.60;;
32214;SDS011;18708;53.124;23.190;2023-03-23T10:54:02;10.07;;;4.75;;
32214;SDS011;18708;53.124;23.190;2023-03-23T10:56:39;7.68;;;5.13;;
32214;SDS011;18708;53.124;23.190;2023-03-23T10:59:40;9.38;;;5.13;;
32214;SDS011;18708;53.124;23.190;2023-03-23T11:02:00;7.32;;;4.95;;
32214;SDS011;18708;53.124;23.190;2023-03-23T11:04:30;10.35;;;5.07;;
32214;SDS011;18708;53.124;23.190;2023-03-23T11:06:59;9.98;;;5.00;;
32214;SDS011;18708;53.124;23.190;2023-03-23T11:09:33;8.98;;;4.88;;
32214;SDS011;18708;53.124;23.190;2023-03-23T11:12:04;7.40;;;4.68;;
32214;SDS011;18708;53.124;23.190;2023-03-23T11:14:40;9.25;;;4.75;;
32214;SDS011;18708;53.124;23.190;2023-03-23T11:17:19;156.48;;;12.07;;
32214;SDS011;18708;53.124;23.190;2023-03-23T11:19:47;8.98;;;4.35;;
32214;SDS011;18708;53.124;23.190;2023-03-23T11:22:15;6.57;;;4.07;;
32214;SDS011;18708;53.124;23.190;2023-03-23T11:24:55;7.93;;;4.63;;
32214;SDS011;18708;53.124;23.190;2023-03-23T11:27:24;6.20;;;4.25;;
32214;SDS011;18708;53.124;23.190;2023-03-23T11:29:53;6.43;;;4.35;;
32214;SDS011;18708;53.124;23.190;2023-03-23T11:32:22;10.05;;;4.68;;
32214;SDS011;18708;53.124;23.190;2023-03-23T11:34:54;7.90;;;4.43;;
32214;SDS011;18708;53.124;23.190;2023-03-23T11:37:28;7.15;;;5.40;;
32214;SDS011;18708;53.124;23.190;2023-03-23T11:42:46;8.40;;;5.43;;
32214;SDS011;18708;53.124;23.190;2023-03-23T11:45:19;12.00;;;5.28;;
32214;SDS011;18708;53.124;23.190;2023-03-23T11:50:37;9.02;;;4.93;;
32214;SDS011;18708;53.124;23.190;2023-03-23T11:58:50;6.88;;;4.82;;
32214;SDS011;18708;53.124;23.190;2023-03-23T12:12:30;9.43;;;5.20;;
32214;SDS011;18708;53.124;23.190;2023-03-23T12:18:01;9.82;;;4.47;;
32214;SDS011;18708;53.124;23.190;2023-03-23T12:42:54;11.73;;;4.80;;
32214;SDS011;18708;53.124;23.190;2023-03-23T12:48:52;10.90;;;4.57;;
32214;SDS011;18708;53.124;23.190;2023-03-23T12:57:02;9.88;;;3.17;;
32214;SDS011;18708;53.124;23.190;2023-03-23T13:00:05;11.73;;;3.58;;
32214;SDS011;18708;53.124;23.190;2023-03-23T13:06:04;6.47;;;3.20;;
32214;SDS011;18708;53.124;23.190;2023-03-23T13:08:47;5.60;;;3.33;;
32214;SDS011;18708;53.124;23.190;2023-03-23T13:11:24;6.32;;;3.50;;
32214;SDS011;18708;53.124;23.190;2023-03-23T13:13:56;5.95;;;3.65;;
32214;SDS011;18708;53.124;23.190;2023-03-23T13:16:39;9.00;;;3.13;;
32214;SDS011;18708;53.124;23.190;2023-03-23T13:24:46;9.65;;;4.80;;
32214;SDS011;18708;53.124;23.190;2023-03-23T13:27:22;6.55;;;3.90;;
32214;SDS011;18708;53.124;23.190;2023-03-23T13:29:52;10.02;;;3.60;;
32214;SDS011;18708;53.124;23.190;2023-03-23T13:32:29;4.55;;;3.63;;
32214;SDS011;18708;53.124;23.190;2023-03-23T13:35:02;8.90;;;3.70;;
32214;SDS011;18708;53.124;23.190;2023-03-23T13:37:31;17.38;;;4.70;;
32214;SDS011;18708;53.124;23.190;2023-03-23T13:42:36;5.30;;;4.00;;
32214;SDS011;18708;53.124;23.190;2023-03-23T13:45:20;6.85;;;3.97;;
32214;SDS011;18708;53.124;23.190;2023-03-23T13:48:16;6.43;;;3.85;;
32214;SDS011;18708;53.124;23.190;2023-03-23T13:50:58;10.25;;;4.50;;
32214;SDS011;18708;53.124;23.190;2023-03-23T13:53:43;7.15;;;4.07;;
32214;SDS011;18708;53.124;23.190;2023-03-23T13:56:17;8.75;;;3.88;;
32214;SDS011;18708;53.124;23.190;2023-03-23T13:59:13;10.63;;;4.65;;
32214;SDS011;18708;53.124;23.190;2023-03-23T14:01:52;8.82;;;3.92;;
32214;SDS011;18708;53.124;23.190;2023-03-23T14:04:20;8.68;;;4.20;;
32214;SDS011;18708;53.124;23.190;2023-03-23T14:06:48;11.82;;;4.97;;
32214;SDS011;18708;53.124;23.190;2023-03-23T14:09:16;10.63;;;4.57;;
32214;SDS011;18708;53.124;23.190;2023-03-23T14:11:57;6.18;;;4.38;;
32214;SDS011;18708;53.124;23.190;2023-03-23T14:14:34;7.63;;;5.10;;
32214;SDS011;18708;53.124;23.190;2023-03-23T14:17:18;10.57;;;5.30;;
32214;SDS011;18708;53.124;23.190;2023-03-23T14:19:51;7.85;;;4.93;;
32214;SDS011;18708;53.124;23.190;2023-03-23T14:22:38;6.60;;;4.85;;
32214;SDS011;18708;53.124;23.190;2023-03-23T14:25:11;8.35;;;5.15;;
32214;SDS011;18708;53.124;23.190;2023-03-23T14:27:39;10.48;;;5.13;;
32214;SDS011;18708;53.124;23.190;2023-03-23T14:30:07;15.63;;;4.88;;
32214;SDS011;18708;53.124;23.190;2023-03-23T14:32:38;13.18;;;5.55;;
32214;SDS011;18708;53.124;23.190;2023-03-23T14:35:05;7.60;;;4.95;;
32214;SDS011;18708;53.124;23.190;2023-03-23T14:37:36;11.68;;;5.07;;
32214;SDS011;18708;53.124;23.190;2023-03-23T14:40:02;8.45;;;5.78;;
32214;SDS011;18708;53.124;23.190;2023-03-23T14:42:32;8.65;;;5.28;;
32214;SDS011;18708;53.124;23.190;2023-03-23T14:44:59;19.25;;;16.60;;
32214;SDS011;18708;53.124;23.190;2023-03-23T14:49:56;16.17;;;14.52;;
32214;SDS011;18708;53.124;23.190;2023-03-23T14:52:33;12.65;;;8.65;;
32214;SDS011;18708;53.124;23.190;2023-03-23T14:55:14;11.63;;;6.97;;
32214;SDS011;18708;53.124;23.190;2023-03-23T14:57:43;9.10;;;6.13;;
32214;SDS011;18708;53.124;23.190;2023-03-23T15:00:13;14.13;;;8.80;;
32214;SDS011;18708;53.124;23.190;2023-03-23T15:02:40;17.08;;;7.93;;
32214;SDS011;18708;53.124;23.190;2023-03-23T15:05:13;13.88;;;7.13;;
32214;SDS011;18708;53.124;23.190;2023-03-23T15:07:42;16.00;;;7.35;;
32214;SDS011;18708;53.124;23.190;2023-03-23T15:10:14;15.80;;;7.72;;
32214;SDS011;18708;53.124;23.190;2023-03-23T15:12:43;13.75;;;7.97;;
32214;SDS011;18708;53.124;23.190;2023-03-23T15:15:19;16.30;;;9.07;;
32214;SDS011;18708;53.124;23.190;2023-03-23T15:17:50;20.08;;;8.88;;
32214;SDS011;18708;53.124;23.190;2023-03-23T15:20:21;18.35;;;10.57;;
32214;SDS011;18708;53.124;23.190;2023-03-23T15:22:49;18.25;;;10.70;;
32214;SDS011;18708;53.124;23.190;2023-03-23T15:27:55;12.05;;;7.80;;
32214;SDS011;18708;53.124;23.190;2023-03-23T15:30:35;10.07;;;6.90;;
32214;SDS011;18708;53.124;23.190;2023-03-23T15:33:10;18.90;;;7.35;;
32214;SDS011;18708;53.124;23.190;2023-03-23T15:35:39;11.90;;;6.65;;
32214;SDS011;18708;53.124;23.190;2023-03-23T15:40:58;14.15;;;8.30;;
32214;SDS011;18708;53.124;23.190;2023-03-23T15:43:27;10.40;;;6.65;;
32214;SDS011;18708;53.124;23.190;2023-03-23T15:46:00;17.30;;;9.07;;
32214;SDS011;18708;53.124;23.190;2023-03-23T15:48:33;13.05;;;8.05;;
32214;SDS011;18708;53.124;23.190;2023-03-23T15:51:10;21.70;;;13.75;;
32214;SDS011;18708;53.124;23.190;2023-03-23T15:53:38;23.88;;;14.80;;
32214;SDS011;18708;53.124;23.190;2023-03-23T15:56:05;13.35;;;7.55;;
32214;SDS011;18708;53.124;23.190;2023-03-23T15:58:33;6.55;;;4.43;;
32214;SDS011;18708;53.124;23.190;2023-03-23T16:01:01;10.73;;;5.75;;
32214;SDS011;18708;53.124;23.190;2023-03-23T16:03:44;15.82;;;8.40;;
32214;SDS011;18708;53.124;23.190;2023-03-23T16:06:20;12.63;;;8.38;;
32214;SDS011;18708;53.124;23.190;2023-03-23T16:08:48;9.77;;;5.95;;
32214;SDS011;18708;53.124;23.190;2023-03-23T16:11:14;14.73;;;7.55;;
32214;SDS011;18708;53.124;23.190;2023-03-23T16:13:42;7.80;;;5.68;;
32214;SDS011;18708;53.124;23.190;2023-03-23T16:16:16;21.50;;;11.68;;
32214;SDS011;18708;53.124;23.190;2023-03-23T16:18:45;21.27;;;13.48;;
32214;SDS011;18708;53.124;23.190;2023-03-23T16:21:10;23.20;;;13.95;;
32214;SDS011;18708;53.124;23.190;2023-03-23T16:23:36;14.90;;;10.32;;
32214;SDS011;18708;53.124;23.190;2023-03-23T16:26:02;20.08;;;12.82;;
32214;SDS011;18708;53.124;23.190;2023-03-23T16:28:28;17.70;;;12.85;;
32214;SDS011;18708;53.124;23.190;2023-03-23T16:30:54;22.42;;;16.05;;
32214;SDS011;18708;53.124;23.190;2023-03-23T16:33:19;14.20;;;10.82;;